TAP1035 LEBL-LPPT
Flight info
| Callsign | TAP1035 |
|---|---|
| Flight time | 1h 47m |
| Altitude | 35000 |
| Route | SENIA DCT DORMI DCT CRETA/N0459F370 DCT NEXAS DCT DISVU DCT ADUXO N975 PALIO DCT AKOKI DCT GOTOR DCT TLD DCT NATPA DCT MELON DCT CCS DCT ELVAR DCT UPULO |
| Aircraft | A320/M-SDE3FGHIJ1RWXYZ/LB1 |
Departure
| Time | 2026-05-05 15:10 |
|---|---|
| Airport | Josep Tarradellas Barcelona-El Prat Airport (LEBL) |
Arrival
| Time | 2026-05-05 16:57 |
|---|---|
| Airport | Lisbon Humberto Delgado Airport (LPPT) |
| Time | Latitude | Longitude | Altitude | Speed | Heading |
|---|---|---|---|---|---|
| 2026-05-05 14:39 | 41.29051 | 2.08113 | 19 ft | 0 kts | 336° |
| 2026-05-05 15:00 | 41.29049 | 2.08114 | 19 ft | 2 kts | 336° |
| 2026-05-05 15:00 | 41.29026 | 2.08129 | 19 ft | 4 kts | 329° |
| 2026-05-05 15:01 | 41.29003 | 2.08149 | 22 ft | 4 kts | 316° |
| 2026-05-05 15:01 | 41.28988 | 2.08176 | 21 ft | 4 kts | 273° |
| 2026-05-05 15:01 | 41.28990 | 2.08192 | 20 ft | 1 kts | 245° |
| 2026-05-05 15:01 | 41.28990 | 2.08194 | 20 ft | 0 kts | 245° |
| 2026-05-05 15:04 | 41.28983 | 2.08174 | 21 ft | 7 kts | 245° |
| 2026-05-05 15:04 | 41.28946 | 2.08126 | 18 ft | 10 kts | 175° |
| 2026-05-05 15:04 | 41.28864 | 2.08173 | 18 ft | 15 kts | 155° |
| 2026-05-05 15:04 | 41.28762 | 2.08231 | 17 ft | 15 kts | 166° |
| 2026-05-05 15:05 | 41.28744 | 2.08387 | 18 ft | 15 kts | 66° |
| 2026-05-05 15:05 | 41.28786 | 2.08509 | 19 ft | 17 kts | 65° |
| 2026-05-05 15:05 | 41.28839 | 2.08659 | 17 ft | 19 kts | 67° |
| 2026-05-05 15:06 | 41.28896 | 2.08829 | 17 ft | 21 kts | 65° |
| 2026-05-05 15:06 | 41.28955 | 2.09000 | 18 ft | 19 kts | 65° |
| 2026-05-05 15:06 | 41.29011 | 2.09164 | 17 ft | 20 kts | 65° |
| 2026-05-05 15:06 | 41.29072 | 2.09341 | 17 ft | 22 kts | 65° |
| 2026-05-05 15:07 | 41.29135 | 2.09524 | 17 ft | 20 kts | 65° |
| 2026-05-05 15:07 | 41.29192 | 2.09689 | 17 ft | 20 kts | 66° |
| 2026-05-05 15:07 | 41.29246 | 2.09848 | 17 ft | 17 kts | 66° |
| 2026-05-05 15:07 | 41.29296 | 2.09958 | 17 ft | 13 kts | 60° |
| 2026-05-05 15:08 | 41.29327 | 2.10071 | 16 ft | 14 kts | 93° |
| 2026-05-05 15:08 | 41.29291 | 2.10206 | 15 ft | 16 kts | 111° |
| 2026-05-05 15:08 | 41.29245 | 2.10305 | 16 ft | 11 kts | 159° |
| 2026-05-05 15:08 | 41.29197 | 2.10255 | 17 ft | 3 kts | 247° |
| 2026-05-05 15:09 | 41.29197 | 2.10253 | 17 ft | 0 kts | 248° |
| 2026-05-05 15:09 | 41.29108 | 2.09997 | 19 ft | 70 kts | 245° |
| 2026-05-05 15:09 | 41.28813 | 2.09134 | 19 ft | 133 kts | 245° |
| 2026-05-05 15:09 | 41.28368 | 2.07823 | 163 ft | 167 kts | 243° |
| 2026-05-05 15:10 | 41.27802 | 2.06521 | 911 ft | 161 kts | 222° |
| 2026-05-05 15:10 | 41.26807 | 2.05885 | 1567 ft | 167 kts | 186° |
| 2026-05-05 15:10 | 41.25561 | 2.05835 | 1918 ft | 190 kts | 182° |
| 2026-05-05 15:10 | 41.24161 | 2.05811 | 2288 ft | 211 kts | 182° |
| 2026-05-05 15:11 | 41.22700 | 2.05790 | 3055 ft | 214 kts | 182° |
| 2026-05-05 15:11 | 41.21179 | 2.05766 | 3858 ft | 217 kts | 183° |
| 2026-05-05 15:11 | 41.19656 | 2.05736 | 4684 ft | 220 kts | 183° |
| 2026-05-05 15:11 | 41.18143 | 2.05686 | 5460 ft | 221 kts | 188° |
| 2026-05-05 15:12 | 41.16664 | 2.05086 | 6104 ft | 230 kts | 208° |
| 2026-05-05 15:12 | 41.15211 | 2.04102 | 6775 ft | 237 kts | 209° |
| 2026-05-05 15:12 | 41.13741 | 2.03087 | 7613 ft | 239 kts | 209° |
| 2026-05-05 15:12 | 41.12263 | 2.02065 | 8496 ft | 240 kts | 209° |
| 2026-05-05 15:13 | 41.10778 | 2.01044 | 9379 ft | 241 kts | 209° |
| 2026-05-05 15:13 | 41.09280 | 2.00019 | 10209 ft | 243 kts | 209° |
| 2026-05-05 15:13 | 41.07902 | 1.98733 | 10963 ft | 244 kts | 226° |
| 2026-05-05 15:13 | 41.06893 | 1.96900 | 11548 ft | 256 kts | 243° |
| 2026-05-05 15:14 | 41.06307 | 1.94554 | 11776 ft | 281 kts | 253° |
| 2026-05-05 15:14 | 41.05782 | 1.91949 | 12000 ft | 305 kts | 253° |
| 2026-05-05 15:14 | 41.05303 | 1.89100 | 12174 ft | 329 kts | 262° |
| 2026-05-05 15:14 | 41.05289 | 1.86003 | 12651 ft | 341 kts | 268° |
| 2026-05-05 15:15 | 41.05326 | 1.82837 | 13345 ft | 346 kts | 268° |
| 2026-05-05 15:15 | 41.05356 | 1.79635 | 14034 ft | 349 kts | 268° |
| 2026-05-05 15:15 | 41.05380 | 1.76416 | 14711 ft | 351 kts | 268° |
| 2026-05-05 15:15 | 41.05405 | 1.73176 | 15408 ft | 352 kts | 267° |
| 2026-05-05 15:16 | 41.05426 | 1.69928 | 16107 ft | 353 kts | 267° |
| 2026-05-05 15:16 | 41.05445 | 1.66666 | 16796 ft | 354 kts | 267° |
| 2026-05-05 15:16 | 41.05465 | 1.63395 | 17476 ft | 356 kts | 267° |
| 2026-05-05 15:16 | 41.05483 | 1.60115 | 18138 ft | 357 kts | 267° |
| 2026-05-05 15:17 | 41.05501 | 1.56815 | 18669 ft | 359 kts | 267° |
| 2026-05-05 15:17 | 41.05474 | 1.53556 | 18858 ft | 357 kts | 262° |
| 2026-05-05 15:17 | 41.05056 | 1.50337 | 18910 ft | 353 kts | 252° |
| 2026-05-05 15:17 | 41.04334 | 1.47230 | 18911 ft | 353 kts | 251° |
| 2026-05-05 15:18 | 41.03600 | 1.44117 | 19098 ft | 356 kts | 251° |
| 2026-05-05 15:18 | 41.02862 | 1.40986 | 19698 ft | 357 kts | 251° |
| 2026-05-05 15:18 | 41.02124 | 1.37848 | 20264 ft | 357 kts | 250° |
| 2026-05-05 15:18 | 41.01383 | 1.34702 | 20841 ft | 358 kts | 250° |
| 2026-05-05 15:19 | 41.00639 | 1.31548 | 21402 ft | 359 kts | 250° |
| 2026-05-05 15:19 | 40.99892 | 1.28384 | 21953 ft | 360 kts | 250° |
| 2026-05-05 15:19 | 40.99145 | 1.25219 | 22491 ft | 361 kts | 250° |
| 2026-05-05 15:19 | 40.98392 | 1.22042 | 23017 ft | 362 kts | 250° |
| 2026-05-05 15:20 | 40.97635 | 1.18854 | 23536 ft | 364 kts | 250° |
| 2026-05-05 15:20 | 40.96878 | 1.15659 | 23954 ft | 365 kts | 250° |
| 2026-05-05 15:20 | 40.96115 | 1.12451 | 24371 ft | 366 kts | 250° |
| 2026-05-05 15:20 | 40.95350 | 1.09238 | 24771 ft | 367 kts | 250° |
| 2026-05-05 15:21 | 40.94585 | 1.06018 | 25169 ft | 368 kts | 250° |
| 2026-05-05 15:21 | 40.93814 | 1.02785 | 25562 ft | 369 kts | 250° |
| 2026-05-05 15:21 | 40.93039 | 0.99542 | 25973 ft | 370 kts | 250° |
| 2026-05-05 15:21 | 40.92261 | 0.96290 | 26368 ft | 371 kts | 250° |
| 2026-05-05 15:22 | 40.91482 | 0.93031 | 26752 ft | 373 kts | 250° |
| 2026-05-05 15:22 | 40.90699 | 0.89762 | 27132 ft | 374 kts | 249° |
| 2026-05-05 15:22 | 40.89911 | 0.86478 | 27497 ft | 375 kts | 249° |
| 2026-05-05 15:22 | 40.89120 | 0.83188 | 27853 ft | 376 kts | 249° |
| 2026-05-05 15:23 | 40.88325 | 0.79889 | 28199 ft | 377 kts | 249° |
| 2026-05-05 15:23 | 40.87529 | 0.76575 | 28539 ft | 379 kts | 250° |
| 2026-05-05 15:23 | 40.86990 | 0.73147 | 28861 ft | 385 kts | 259° |
| 2026-05-05 15:23 | 40.86906 | 0.69585 | 29191 ft | 390 kts | 265° |
| 2026-05-05 15:24 | 40.86942 | 0.65995 | 29535 ft | 391 kts | 265° |
| 2026-05-05 15:24 | 40.86972 | 0.62407 | 29992 ft | 389 kts | 264° |
| 2026-05-05 15:24 | 40.86998 | 0.58833 | 30365 ft | 388 kts | 264° |
| 2026-05-05 15:24 | 40.87020 | 0.55269 | 30686 ft | 388 kts | 264° |
| 2026-05-05 15:25 | 40.87042 | 0.51760 | 31049 ft | 387 kts | 264° |
| 2026-05-05 15:25 | 40.87063 | 0.48210 | 31385 ft | 387 kts | 264° |
| 2026-05-05 15:25 | 40.87080 | 0.44655 | 31710 ft | 387 kts | 264° |
| 2026-05-05 15:25 | 40.87097 | 0.41100 | 32038 ft | 387 kts | 264° |
| 2026-05-05 15:26 | 40.87115 | 0.37548 | 32361 ft | 387 kts | 264° |
| 2026-05-05 15:26 | 40.87132 | 0.33990 | 32641 ft | 388 kts | 264° |
| 2026-05-05 15:26 | 40.87150 | 0.30421 | 32967 ft | 389 kts | 264° |
| 2026-05-05 15:26 | 40.87166 | 0.26844 | 33259 ft | 389 kts | 264° |
| 2026-05-05 15:27 | 40.87178 | 0.23267 | 33544 ft | 390 kts | 264° |
| 2026-05-05 15:27 | 40.87189 | 0.19680 | 33818 ft | 391 kts | 264° |
| 2026-05-05 15:27 | 40.87201 | 0.16086 | 34090 ft | 391 kts | 264° |
| 2026-05-05 15:27 | 40.87210 | 0.12488 | 34338 ft | 392 kts | 264° |
| 2026-05-05 15:28 | 40.87218 | 0.08882 | 34577 ft | 393 kts | 265° |
| 2026-05-05 15:28 | 40.87226 | 0.05269 | 34822 ft | 393 kts | 265° |
| 2026-05-05 15:28 | 40.87236 | 0.01650 | 35048 ft | 394 kts | 265° |
| 2026-05-05 15:28 | 40.87247 | -0.01976 | 35269 ft | 395 kts | 265° |
| 2026-05-05 15:29 | 40.87252 | -0.05609 | 35494 ft | 396 kts | 265° |
| 2026-05-05 15:29 | 40.87253 | -0.09245 | 35708 ft | 396 kts | 265° |
| 2026-05-05 15:29 | 40.87255 | -0.12885 | 35922 ft | 397 kts | 266° |
| 2026-05-05 15:29 | 40.87260 | -0.16534 | 36138 ft | 397 kts | 266° |
| 2026-05-05 15:30 | 40.87262 | -0.20181 | 36359 ft | 398 kts | 266° |
| 2026-05-05 15:30 | 40.87262 | -0.23841 | 36562 ft | 398 kts | 266° |
| 2026-05-05 15:30 | 40.87261 | -0.27497 | 36756 ft | 399 kts | 266° |
| 2026-05-05 15:30 | 40.87259 | -0.31164 | 36903 ft | 400 kts | 266° |
| 2026-05-05 15:31 | 40.87254 | -0.34851 | 36933 ft | 402 kts | 266° |
| 2026-05-05 15:31 | 40.87238 | -0.42243 | 36933 ft | 403 kts | 266° |
| 2026-05-05 15:32 | 40.87223 | -0.49651 | 36937 ft | 403 kts | 266° |
| 2026-05-05 15:32 | 40.87204 | -0.57012 | 36933 ft | 403 kts | 266° |
| 2026-05-05 15:33 | 40.87180 | -0.64415 | 36938 ft | 403 kts | 266° |
| 2026-05-05 15:33 | 40.87152 | -0.71819 | 36941 ft | 403 kts | 267° |
| 2026-05-05 15:34 | 40.86891 | -0.79192 | 36950 ft | 400 kts | 257° |
| 2026-05-05 15:34 | 40.85199 | -0.86155 | 36956 ft | 399 kts | 249° |
| 2026-05-05 15:35 | 40.83300 | -0.93037 | 36951 ft | 399 kts | 250° |
| 2026-05-05 15:35 | 40.81401 | -0.99916 | 36954 ft | 399 kts | 250° |
| 2026-05-05 15:36 | 40.79489 | -1.06799 | 36951 ft | 399 kts | 250° |
| 2026-05-05 15:36 | 40.77578 | -1.13674 | 36955 ft | 399 kts | 250° |
| 2026-05-05 15:37 | 40.75657 | -1.20549 | 36957 ft | 400 kts | 250° |
| 2026-05-05 15:37 | 40.73721 | -1.27420 | 36958 ft | 400 kts | 250° |
| 2026-05-05 15:38 | 40.71789 | -1.34296 | 36963 ft | 400 kts | 250° |
| 2026-05-05 15:38 | 40.69877 | -1.41122 | 36962 ft | 400 kts | 250° |
| 2026-05-05 15:39 | 40.67938 | -1.47981 | 36975 ft | 399 kts | 250° |
| 2026-05-05 15:39 | 40.65996 | -1.54840 | 36971 ft | 399 kts | 250° |
| 2026-05-05 15:40 | 40.64054 | -1.61689 | 36978 ft | 399 kts | 250° |
| 2026-05-05 15:40 | 40.62101 | -1.68542 | 36982 ft | 399 kts | 250° |
| 2026-05-05 15:41 | 40.60159 | -1.75381 | 36985 ft | 399 kts | 250° |
| 2026-05-05 15:41 | 40.58207 | -1.82224 | 36990 ft | 399 kts | 250° |
| 2026-05-05 15:42 | 40.56246 | -1.89053 | 36988 ft | 399 kts | 250° |
| 2026-05-05 15:42 | 40.54279 | -1.95881 | 36988 ft | 399 kts | 250° |
| 2026-05-05 15:43 | 40.52303 | -2.02708 | 36990 ft | 400 kts | 250° |
| 2026-05-05 15:43 | 40.50336 | -2.09538 | 36984 ft | 400 kts | 250° |
| 2026-05-05 15:44 | 40.48374 | -2.16320 | 36982 ft | 400 kts | 250° |
| 2026-05-05 15:44 | 40.46385 | -2.23143 | 36981 ft | 400 kts | 250° |
| 2026-05-05 15:45 | 40.44388 | -2.29965 | 36982 ft | 400 kts | 250° |
| 2026-05-05 15:45 | 40.42391 | -2.36786 | 36974 ft | 400 kts | 250° |
| 2026-05-05 15:46 | 40.40390 | -2.43604 | 36973 ft | 400 kts | 250° |
| 2026-05-05 15:46 | 40.38389 | -2.50424 | 36972 ft | 400 kts | 250° |
| 2026-05-05 15:47 | 40.36581 | -2.57323 | 36967 ft | 399 kts | 255° |
| 2026-05-05 15:47 | 40.35072 | -2.64330 | 36966 ft | 400 kts | 255° |
| 2026-05-05 15:48 | 40.33560 | -2.71288 | 36959 ft | 399 kts | 255° |
| 2026-05-05 15:48 | 40.32033 | -2.78284 | 36959 ft | 399 kts | 255° |
| 2026-05-05 15:49 | 40.30506 | -2.85289 | 36954 ft | 400 kts | 255° |
| 2026-05-05 15:49 | 40.29229 | -2.91154 | 36957 ft | 400 kts | 255° |
| 2026-05-05 15:50 | 40.27710 | -2.98103 | 36952 ft | 399 kts | 255° |
| 2026-05-05 15:50 | 40.26163 | -3.05087 | 36958 ft | 399 kts | 255° |
| 2026-05-05 15:51 | 40.24612 | -3.12073 | 36959 ft | 399 kts | 255° |
| 2026-05-05 15:51 | 40.23060 | -3.19049 | 36961 ft | 400 kts | 255° |
| 2026-05-05 15:52 | 40.21508 | -3.26031 | 36964 ft | 400 kts | 255° |
| 2026-05-05 15:52 | 40.19964 | -3.33013 | 36970 ft | 400 kts | 255° |
| 2026-05-05 15:53 | 40.18410 | -3.39992 | 36979 ft | 400 kts | 255° |
| 2026-05-05 15:53 | 40.16842 | -3.46970 | 36975 ft | 400 kts | 255° |
| 2026-05-05 15:54 | 40.15270 | -3.53935 | 36981 ft | 400 kts | 256° |
| 2026-05-05 15:54 | 40.13702 | -3.60905 | 36980 ft | 400 kts | 256° |
| 2026-05-05 15:55 | 40.12128 | -3.67873 | 36983 ft | 399 kts | 255° |
| 2026-05-05 15:55 | 40.10546 | -3.74829 | 36981 ft | 399 kts | 255° |
| 2026-05-05 15:56 | 40.08957 | -3.81772 | 36983 ft | 399 kts | 255° |
| 2026-05-05 15:56 | 40.07370 | -3.88714 | 36989 ft | 399 kts | 255° |
| 2026-05-05 15:57 | 40.05792 | -3.95605 | 36981 ft | 399 kts | 255° |
| 2026-05-05 15:57 | 40.04198 | -4.02531 | 36985 ft | 398 kts | 255° |
| 2026-05-05 15:58 | 40.02596 | -4.09454 | 36979 ft | 398 kts | 255° |
| 2026-05-05 15:58 | 40.00988 | -4.16368 | 36974 ft | 398 kts | 255° |
| 2026-05-05 15:59 | 39.99384 | -4.23285 | 36973 ft | 398 kts | 255° |
| 2026-05-05 15:59 | 39.97779 | -4.30188 | 36976 ft | 398 kts | 255° |
| 2026-05-05 16:00 | 39.96196 | -4.37111 | 36975 ft | 398 kts | 256° |
| 2026-05-05 16:00 | 39.94788 | -4.44079 | 36965 ft | 398 kts | 257° |
| 2026-05-05 16:01 | 39.93425 | -4.51062 | 36966 ft | 398 kts | 257° |
| 2026-05-05 16:01 | 39.92026 | -4.58033 | 36967 ft | 398 kts | 257° |
| 2026-05-05 16:02 | 39.90597 | -4.64997 | 36968 ft | 398 kts | 257° |
| 2026-05-05 16:02 | 39.89161 | -4.71961 | 36965 ft | 398 kts | 257° |
| 2026-05-05 16:03 | 39.87728 | -4.78925 | 36964 ft | 398 kts | 257° |
| 2026-05-05 16:03 | 39.86287 | -4.85893 | 36965 ft | 399 kts | 257° |
| 2026-05-05 16:04 | 39.84844 | -4.92858 | 36965 ft | 399 kts | 257° |
| 2026-05-05 16:04 | 39.83396 | -4.99826 | 36964 ft | 399 kts | 257° |
| 2026-05-05 16:05 | 39.81942 | -5.06787 | 36965 ft | 399 kts | 257° |
| 2026-05-05 16:05 | 39.80482 | -5.13752 | 36966 ft | 399 kts | 256° |
| 2026-05-05 16:06 | 39.79029 | -5.20670 | 36967 ft | 399 kts | 256° |
| 2026-05-05 16:06 | 39.77561 | -5.27631 | 36967 ft | 399 kts | 256° |
| 2026-05-05 16:07 | 39.76094 | -5.34587 | 36964 ft | 399 kts | 256° |
| 2026-05-05 16:07 | 39.74621 | -5.41543 | 36967 ft | 399 kts | 256° |
| 2026-05-05 16:08 | 39.73137 | -5.48492 | 36965 ft | 399 kts | 256° |
| 2026-05-05 16:08 | 39.71652 | -5.55436 | 36973 ft | 399 kts | 256° |
| 2026-05-05 16:09 | 39.70166 | -5.62377 | 36970 ft | 399 kts | 256° |
| 2026-05-05 16:09 | 39.68679 | -5.69316 | 36969 ft | 399 kts | 256° |
| 2026-05-05 16:10 | 39.67186 | -5.76258 | 36973 ft | 399 kts | 256° |
| 2026-05-05 16:10 | 39.65684 | -5.83187 | 36970 ft | 399 kts | 256° |
| 2026-05-05 16:11 | 39.64177 | -5.90114 | 36968 ft | 399 kts | 256° |
| 2026-05-05 16:12 | 39.61169 | -6.03957 | 36973 ft | 399 kts | 256° |
| 2026-05-05 16:13 | 39.57385 | -6.21190 | 36978 ft | 399 kts | 256° |
| 2026-05-05 16:13 | 39.55864 | -6.28097 | 36979 ft | 399 kts | 256° |
| 2026-05-05 16:14 | 39.52798 | -6.41909 | 36979 ft | 399 kts | 255° |
| 2026-05-05 16:15 | 39.48043 | -6.54959 | 36980 ft | 402 kts | 246° |
| 2026-05-05 16:16 | 39.43076 | -6.67915 | 36980 ft | 402 kts | 246° |
| 2026-05-05 16:17 | 39.39343 | -6.77620 | 36985 ft | 402 kts | 246° |
| 2026-05-05 16:18 | 39.35590 | -6.87312 | 36982 ft | 402 kts | 246° |
| 2026-05-05 16:19 | 39.31830 | -6.96992 | 36986 ft | 402 kts | 246° |
| 2026-05-05 16:19 | 39.27981 | -7.06553 | 36994 ft | 402 kts | 244° |
| 2026-05-05 16:20 | 39.22373 | -7.19055 | 37006 ft | 402 kts | 243° |
| 2026-05-05 16:22 | 39.15456 | -7.34691 | 37013 ft | 401 kts | 243° |
| 2026-05-05 16:23 | 39.09916 | -7.47161 | 36093 ft | 401 kts | 244° |
| 2026-05-05 16:23 | 39.08529 | -7.50276 | 35361 ft | 401 kts | 244° |
| 2026-05-05 16:23 | 39.05742 | -7.56528 | 33829 ft | 404 kts | 244° |
| 2026-05-05 16:24 | 39.04340 | -7.59668 | 32884 ft | 406 kts | 244° |
| 2026-05-05 16:24 | 39.02930 | -7.62821 | 31985 ft | 408 kts | 244° |
| 2026-05-05 16:24 | 39.00086 | -7.69168 | 30143 ft | 413 kts | 243° |
| 2026-05-05 16:25 | 38.98643 | -7.72385 | 29018 ft | 417 kts | 243° |
| 2026-05-05 16:25 | 38.95777 | -7.78755 | 27697 ft | 405 kts | 243° |
| 2026-05-05 16:25 | 38.94375 | -7.81864 | 27046 ft | 400 kts | 243° |
| 2026-05-05 16:26 | 38.91673 | -7.87866 | 25813 ft | 392 kts | 243° |
| 2026-05-05 16:26 | 38.88939 | -7.93930 | 24739 ft | 397 kts | 243° |
| 2026-05-05 16:27 | 38.87553 | -7.97010 | 23959 ft | 398 kts | 243° |
| 2026-05-05 16:27 | 38.86170 | -8.00074 | 23318 ft | 394 kts | 243° |
| 2026-05-05 16:27 | 38.84820 | -8.03054 | 22707 ft | 389 kts | 243° |
| 2026-05-05 16:27 | 38.83468 | -8.06031 | 22154 ft | 384 kts | 243° |
| 2026-05-05 16:28 | 38.82133 | -8.08970 | 21606 ft | 378 kts | 243° |
| 2026-05-05 16:28 | 38.80819 | -8.11863 | 21088 ft | 373 kts | 243° |
| 2026-05-05 16:28 | 38.79522 | -8.14718 | 20591 ft | 368 kts | 243° |
| 2026-05-05 16:28 | 38.78240 | -8.17535 | 20113 ft | 364 kts | 243° |
| 2026-05-05 16:29 | 38.76967 | -8.20323 | 19647 ft | 359 kts | 243° |
| 2026-05-05 16:29 | 38.75712 | -8.23068 | 19173 ft | 356 kts | 243° |
| 2026-05-05 16:29 | 38.74467 | -8.25790 | 18739 ft | 352 kts | 243° |
| 2026-05-05 16:29 | 38.73237 | -8.28488 | 18302 ft | 349 kts | 243° |
| 2026-05-05 16:30 | 38.72018 | -8.31164 | 17819 ft | 347 kts | 243° |
| 2026-05-05 16:30 | 38.70805 | -8.33818 | 17365 ft | 345 kts | 243° |
| 2026-05-05 16:30 | 38.69597 | -8.36458 | 16918 ft | 343 kts | 243° |
| 2026-05-05 16:30 | 38.68394 | -8.39090 | 16466 ft | 342 kts | 243° |
| 2026-05-05 16:31 | 38.67198 | -8.41706 | 15986 ft | 341 kts | 243° |
| 2026-05-05 16:31 | 38.66000 | -8.44321 | 15478 ft | 340 kts | 243° |
| 2026-05-05 16:31 | 38.64804 | -8.46930 | 15005 ft | 339 kts | 243° |
| 2026-05-05 16:31 | 38.63613 | -8.49524 | 14512 ft | 338 kts | 243° |
| 2026-05-05 16:32 | 38.62422 | -8.52113 | 14023 ft | 337 kts | 243° |
| 2026-05-05 16:32 | 38.61228 | -8.54697 | 13481 ft | 337 kts | 243° |
| 2026-05-05 16:32 | 38.60036 | -8.57271 | 12966 ft | 335 kts | 243° |
| 2026-05-05 16:32 | 38.58887 | -8.59757 | 12462 ft | 334 kts | 243° |
| 2026-05-05 16:33 | 38.57711 | -8.62308 | 11950 ft | 333 kts | 243° |
| 2026-05-05 16:33 | 38.56537 | -8.64853 | 11413 ft | 332 kts | 242° |
| 2026-05-05 16:33 | 38.55381 | -8.67356 | 10912 ft | 331 kts | 242° |
| 2026-05-05 16:33 | 38.54229 | -8.69846 | 10740 ft | 319 kts | 242° |
| 2026-05-05 16:34 | 38.53119 | -8.72240 | 10623 ft | 307 kts | 243° |
| 2026-05-05 16:34 | 38.52050 | -8.74542 | 10503 ft | 296 kts | 242° |
| 2026-05-05 16:34 | 38.51015 | -8.76772 | 10318 ft | 288 kts | 243° |
| 2026-05-05 16:34 | 38.50004 | -8.78954 | 10220 ft | 284 kts | 243° |
| 2026-05-05 16:35 | 38.49000 | -8.81122 | 10166 ft | 284 kts | 243° |
| 2026-05-05 16:35 | 38.47997 | -8.83287 | 10061 ft | 283 kts | 243° |
| 2026-05-05 16:35 | 38.46983 | -8.85475 | 9537 ft | 290 kts | 242° |
| 2026-05-05 16:35 | 38.45961 | -8.87672 | 9252 ft | 285 kts | 243° |
| 2026-05-05 16:36 | 38.44947 | -8.89837 | 8848 ft | 284 kts | 242° |
| 2026-05-05 16:36 | 38.43940 | -8.91995 | 8449 ft | 282 kts | 242° |
| 2026-05-05 16:36 | 38.42945 | -8.94136 | 8163 ft | 277 kts | 242° |
| 2026-05-05 16:36 | 38.41983 | -8.96202 | 8035 ft | 265 kts | 243° |
| 2026-05-05 16:37 | 38.41348 | -8.98318 | 7903 ft | 249 kts | 264° |
| 2026-05-05 16:37 | 38.41407 | -9.00453 | 7679 ft | 238 kts | 287° |
| 2026-05-05 16:37 | 38.42079 | -9.02345 | 7355 ft | 234 kts | 307° |
| 2026-05-05 16:37 | 38.43088 | -9.03970 | 7025 ft | 234 kts | 309° |
| 2026-05-05 16:38 | 38.44101 | -9.05602 | 6692 ft | 235 kts | 309° |
| 2026-05-05 16:38 | 38.45113 | -9.07242 | 6403 ft | 235 kts | 309° |
| 2026-05-05 16:38 | 38.46121 | -9.08881 | 6115 ft | 234 kts | 309° |
| 2026-05-05 16:38 | 38.47122 | -9.10510 | 5841 ft | 233 kts | 309° |
| 2026-05-05 16:39 | 38.48113 | -9.12125 | 5601 ft | 230 kts | 309° |
| 2026-05-05 16:39 | 38.49092 | -9.13721 | 5346 ft | 228 kts | 309° |
| 2026-05-05 16:39 | 38.50053 | -9.15289 | 5121 ft | 224 kts | 309° |
| 2026-05-05 16:39 | 38.50692 | -9.16335 | 5063 ft | 218 kts | 309° |
| 2026-05-05 16:40 | 38.51896 | -9.18307 | 4940 ft | 208 kts | 309° |
| 2026-05-05 16:40 | 38.52769 | -9.19730 | 4838 ft | 199 kts | 311° |
| 2026-05-05 16:40 | 38.53815 | -9.20802 | 4730 ft | 190 kts | 334° |
| 2026-05-05 16:40 | 38.55008 | -9.21440 | 4621 ft | 181 kts | 336° |
| 2026-05-05 16:41 | 38.55761 | -9.21838 | 4515 ft | 174 kts | 336° |
| 2026-05-05 16:41 | 38.56855 | -9.22417 | 4320 ft | 166 kts | 336° |
| 2026-05-05 16:41 | 38.57897 | -9.22970 | 4184 ft | 158 kts | 336° |
| 2026-05-05 16:41 | 38.58915 | -9.23372 | 4067 ft | 151 kts | 351° |
| 2026-05-05 16:42 | 38.59954 | -9.23264 | 3898 ft | 150 kts | 12° |
| 2026-05-05 16:42 | 38.60905 | -9.22782 | 3704 ft | 146 kts | 17° |
| 2026-05-05 16:42 | 38.61851 | -9.22278 | 3519 ft | 147 kts | 17° |
| 2026-05-05 16:42 | 38.62797 | -9.21775 | 3321 ft | 148 kts | 18° |
| 2026-05-05 16:43 | 38.63749 | -9.21268 | 3113 ft | 147 kts | 17° |
| 2026-05-05 16:43 | 38.64688 | -9.20768 | 2924 ft | 146 kts | 17° |
| 2026-05-05 16:43 | 38.65629 | -9.20267 | 2705 ft | 147 kts | 16° |
| 2026-05-05 16:43 | 38.66569 | -9.19766 | 2503 ft | 145 kts | 15° |
| 2026-05-05 16:44 | 38.67503 | -9.19268 | 2320 ft | 145 kts | 15° |
| 2026-05-05 16:44 | 38.68433 | -9.18773 | 2104 ft | 146 kts | 17° |
| 2026-05-05 16:44 | 38.69372 | -9.18272 | 1910 ft | 147 kts | 16° |
| 2026-05-05 16:44 | 38.70306 | -9.17774 | 1717 ft | 145 kts | 15° |
| 2026-05-05 16:45 | 38.71235 | -9.17278 | 1519 ft | 144 kts | 16° |
| 2026-05-05 16:45 | 38.72168 | -9.16781 | 1330 ft | 146 kts | 16° |
| 2026-05-05 16:45 | 38.73162 | -9.16273 | 1214 ft | 172 kts | 15° |
| 2026-05-05 16:45 | 38.74317 | -9.15676 | 1836 ft | 189 kts | 20° |
| 2026-05-05 16:46 | 38.75470 | -9.14899 | 2908 ft | 177 kts | 20° |
| 2026-05-05 16:46 | 38.76530 | -9.14287 | 4097 ft | 164 kts | 18° |
| 2026-05-05 16:46 | 38.77654 | -9.13712 | 4644 ft | 185 kts | 15° |
| 2026-05-05 16:46 | 38.78947 | -9.13145 | 5109 ft | 208 kts | 14° |
| 2026-05-05 16:47 | 38.80407 | -9.12543 | 5718 ft | 230 kts | 15° |
| 2026-05-05 16:47 | 38.82069 | -9.11885 | 5969 ft | 272 kts | 13° |
| 2026-05-05 16:47 | 38.83967 | -9.11687 | 6005 ft | 267 kts | 348° |
| 2026-05-05 16:47 | 38.85578 | -9.12574 | 6007 ft | 244 kts | 319° |
| 2026-05-05 16:48 | 38.86518 | -9.14246 | 6010 ft | 236 kts | 289° |
| 2026-05-05 16:48 | 38.86639 | -9.16343 | 6012 ft | 241 kts | 263° |
| 2026-05-05 16:48 | 38.86321 | -9.18461 | 6010 ft | 242 kts | 259° |
| 2026-05-05 16:48 | 38.85943 | -9.20565 | 6010 ft | 241 kts | 259° |
| 2026-05-05 16:49 | 38.85551 | -9.22660 | 6035 ft | 242 kts | 258° |
| 2026-05-05 16:49 | 38.85160 | -9.24754 | 6036 ft | 241 kts | 259° |
| 2026-05-05 16:49 | 38.84760 | -9.26848 | 6034 ft | 242 kts | 257° |
| 2026-05-05 16:49 | 38.83991 | -9.28769 | 6036 ft | 248 kts | 230° |
| 2026-05-05 16:50 | 38.82536 | -9.29962 | 6036 ft | 255 kts | 200° |
| 2026-05-05 16:50 | 38.80751 | -9.30190 | 6038 ft | 261 kts | 180° |
| 2026-05-05 16:50 | 38.78937 | -9.30094 | 6035 ft | 261 kts | 179° |
| 2026-05-05 16:50 | 38.77124 | -9.29962 | 5984 ft | 262 kts | 179° |
| 2026-05-05 16:51 | 38.75307 | -9.29831 | 5733 ft | 260 kts | 179° |
| 2026-05-05 16:51 | 38.73504 | -9.29699 | 5501 ft | 259 kts | 179° |
| 2026-05-05 16:51 | 38.71700 | -9.29563 | 5276 ft | 259 kts | 179° |
| 2026-05-05 16:51 | 38.69899 | -9.29425 | 5041 ft | 259 kts | 178° |
| 2026-05-05 16:52 | 38.68104 | -9.29295 | 4815 ft | 258 kts | 180° |
| 2026-05-05 16:52 | 38.66312 | -9.29155 | 4579 ft | 258 kts | 178° |
| 2026-05-05 16:52 | 38.64586 | -9.28566 | 4341 ft | 256 kts | 150° |
| 2026-05-05 16:52 | 38.63332 | -9.27061 | 4072 ft | 243 kts | 124° |
| 2026-05-05 16:53 | 38.62421 | -9.25259 | 3644 ft | 241 kts | 119° |
| 2026-05-05 16:53 | 38.61859 | -9.23295 | 3229 ft | 233 kts | 89° |
| 2026-05-05 16:53 | 38.62187 | -9.21345 | 2798 ft | 222 kts | 52° |
| 2026-05-05 16:53 | 38.63332 | -9.20264 | 2519 ft | 193 kts | 4° |
| 2026-05-05 16:54 | 38.64561 | -9.20412 | 2511 ft | 164 kts | 346° |
| 2026-05-05 16:54 | 38.65628 | -9.20234 | 2519 ft | 157 kts | 22° |
| 2026-05-05 16:54 | 38.66592 | -9.19638 | 2430 ft | 151 kts | 11° |
| 2026-05-05 16:54 | 38.67577 | -9.19178 | 2259 ft | 152 kts | 13° |
| 2026-05-05 16:55 | 38.68558 | -9.18684 | 2068 ft | 151 kts | 16° |
| 2026-05-05 16:55 | 38.69522 | -9.18182 | 1874 ft | 147 kts | 15° |
| 2026-05-05 16:55 | 38.70464 | -9.17685 | 1675 ft | 145 kts | 15° |
| 2026-05-05 16:55 | 38.71396 | -9.17191 | 1476 ft | 146 kts | 16° |
| 2026-05-05 16:56 | 38.72341 | -9.16688 | 1280 ft | 147 kts | 15° |
| 2026-05-05 16:56 | 38.73285 | -9.16184 | 1087 ft | 145 kts | 16° |
| 2026-05-05 16:56 | 38.74216 | -9.15685 | 896 ft | 144 kts | 17° |
| 2026-05-05 16:56 | 38.75146 | -9.15184 | 734 ft | 143 kts | 19° |
| 2026-05-05 16:57 | 38.76054 | -9.14693 | 524 ft | 142 kts | 17° |
| 2026-05-05 16:57 | 38.76962 | -9.14216 | 366 ft | 136 kts | 15° |
| 2026-05-05 16:57 | 38.77675 | -9.13838 | 366 ft | 74 kts | 22° |
| 2026-05-05 16:57 | 38.78050 | -9.13637 | 366 ft | 44 kts | 23° |
| 2026-05-05 16:58 | 38.78245 | -9.13512 | 367 ft | 27 kts | 36° |
| 2026-05-05 16:58 | 38.78366 | -9.13356 | 366 ft | 16 kts | 54° |
| 2026-05-05 16:58 | 38.78336 | -9.13263 | 359 ft | 13 kts | 176° |
| 2026-05-05 16:58 | 38.78253 | -9.13300 | 361 ft | 12 kts | 202° |
| 2026-05-05 16:59 | 38.78177 | -9.13342 | 360 ft | 12 kts | 202° |
| 2026-05-05 16:59 | 38.78104 | -9.13379 | 358 ft | 11 kts | 202° |
| 2026-05-05 16:59 | 38.77996 | -9.13409 | 356 ft | 18 kts | 175° |
| 2026-05-05 16:59 | 38.77862 | -9.13373 | 348 ft | 20 kts | 168° |
| 2026-05-05 17:00 | 38.77745 | -9.13341 | 344 ft | 17 kts | 169° |
| 2026-05-05 17:00 | 38.77622 | -9.13320 | 337 ft | 18 kts | 179° |
| 2026-05-05 17:00 | 38.77504 | -9.13299 | 333 ft | 17 kts | 167° |
| 2026-05-05 17:00 | 38.77396 | -9.13270 | 336 ft | 15 kts | 169° |
| 2026-05-05 17:01 | 38.77295 | -9.13250 | 338 ft | 14 kts | 170° |
| 2026-05-05 17:01 | 38.77198 | -9.13224 | 333 ft | 16 kts | 168° |
| 2026-05-05 17:01 | 38.77092 | -9.13196 | 337 ft | 15 kts | 169° |
| 2026-05-05 17:01 | 38.76997 | -9.13170 | 338 ft | 13 kts | 168° |
| 2026-05-05 17:02 | 38.76922 | -9.13151 | 336 ft | 9 kts | 168° |
| 2026-05-05 17:02 | 38.76880 | -9.13122 | 335 ft | 7 kts | 105° |
| 2026-05-05 17:02 | 38.76888 | -9.13074 | 337 ft | 3 kts | 77° |
| 2026-05-05 17:02 | 38.76892 | -9.13052 | 334 ft | 0 kts | 78° |